createdAt,value
2022-09-15T00:00:54.482Z,38.88
2022-09-15T00:02:26.274Z,39.30
2022-09-15T00:03:58.088Z,39.04
2022-09-15T00:05:29.643Z,39.10
2022-09-15T00:07:01.173Z,39.10
2022-09-15T00:08:32.795Z,39.10
2022-09-15T00:10:06.881Z,39.17
2022-09-15T00:11:39.724Z,38.96
2022-09-15T00:13:12.262Z,39.04
2022-09-15T00:14:44.665Z,39.07
2022-09-15T00:16:16.503Z,39.17
2022-09-15T00:17:52.710Z,39.10
2022-09-15T00:19:24.382Z,38.95
2022-09-15T00:20:57.840Z,39.01
2022-09-15T00:22:31.407Z,39.00
2022-09-15T00:24:05.152Z,38.94
2022-09-15T00:25:41.722Z,39.13
2022-09-15T00:27:13.381Z,39.25
2022-09-15T00:28:46.407Z,39.24
2022-09-15T00:30:19.029Z,39.12
2022-09-15T00:31:51.087Z,39.36
2022-09-15T00:33:24.597Z,38.99
2022-09-15T00:34:56.827Z,39.24
2022-09-15T00:36:28.448Z,39.34
2022-09-15T00:38:01.865Z,39.12
2022-09-15T00:39:34.545Z,39.14
2022-09-15T00:41:06.617Z,39.12
2022-09-15T00:42:39.386Z,39.16
2022-09-15T00:44:16.854Z,39.18
2022-09-15T00:45:48.638Z,39.15
2022-09-15T00:47:21.302Z,39.18
2022-09-15T00:48:54.736Z,39.28
2022-09-15T00:50:26.286Z,39.36
2022-09-15T00:52:02.146Z,39.46
2022-09-15T00:53:33.757Z,39.46
2022-09-15T00:55:13.589Z,39.63
2022-09-15T00:56:46.130Z,39.54
2022-09-15T00:58:41.711Z,39.55
2022-09-15T01:00:15.838Z,39.46
2022-09-15T01:01:48.335Z,39.64
2022-09-15T01:03:20.691Z,39.61
2022-09-15T01:04:57.979Z,39.50
2022-09-15T01:06:33.264Z,39.47
2022-09-15T01:08:09.292Z,39.58
2022-09-15T01:09:51.142Z,39.65
2022-09-15T01:11:22.997Z,39.54
2022-09-15T01:12:58.582Z,39.53
2022-09-15T01:14:30.318Z,39.60
2022-09-15T01:16:22.194Z,39.76
2022-09-15T01:18:03.191Z,39.84
2022-09-15T01:19:38.154Z,39.91
2022-09-15T01:21:15.689Z,39.82
2022-09-15T01:22:53.536Z,39.73
2022-09-15T01:24:29.906Z,39.87
2022-09-15T01:26:18.330Z,39.80
2022-09-15T01:28:01.936Z,39.88
2022-09-15T01:29:48.209Z,39.82
2022-09-15T01:31:23.134Z,39.88
2022-09-15T01:33:07.515Z,39.76
2022-09-15T01:34:43.169Z,39.92
2022-09-15T01:36:18.098Z,40.15
2022-09-15T01:37:55.418Z,39.92
2022-09-15T01:39:28.467Z,40.04
2022-09-15T01:41:03.036Z,40.09
2022-09-15T01:42:35.209Z,39.97
2022-09-15T01:44:07.831Z,40.00
2022-09-15T01:45:39.725Z,40.11
2022-09-15T01:47:12.918Z,40.14
2022-09-15T01:48:44.677Z,40.20
2022-09-15T01:50:19.408Z,40.21
2022-09-15T01:51:52.663Z,40.39
2022-09-15T01:53:24.545Z,40.31
2022-09-15T01:54:57.063Z,40.46
2022-09-15T01:56:28.655Z,40.38
2022-09-15T01:58:00.302Z,40.59
2022-09-15T01:59:32.198Z,40.61
2022-09-15T02:01:07.594Z,40.59
2022-09-15T02:02:44.285Z,40.40
2022-09-15T02:04:22.160Z,40.75
2022-09-15T02:06:03.028Z,40.57
2022-09-15T02:07:48.074Z,40.74
2022-09-15T02:09:30.865Z,40.57
2022-09-15T02:11:16.899Z,40.87
2022-09-15T02:12:50.918Z,40.91
2022-09-15T02:14:31.387Z,40.77
2022-09-15T02:16:05.930Z,40.80
2022-09-15T02:17:40.255Z,40.69
2022-09-15T02:19:33.615Z,40.83
2022-09-15T02:21:29.779Z,40.87
2022-09-15T02:23:08.283Z,40.71
2022-09-15T02:24:44.316Z,41.03
2022-09-15T02:26:17.671Z,41.02
2022-09-15T02:27:51.470Z,41.00
2022-09-15T02:29:24.424Z,41.02
2022-09-15T02:30:56.325Z,41.29
2022-09-15T02:32:29.903Z,41.03
2022-09-15T02:34:07.085Z,41.04
2022-09-15T02:35:38.687Z,41.05
2022-09-15T02:37:10.383Z,41.01
2022-09-15T02:38:45.747Z,40.97
2022-09-15T02:40:17.538Z,41.02
2022-09-15T02:41:49.281Z,41.08
2022-09-15T02:43:21.246Z,41.03
2022-09-15T02:44:53.095Z,41.18
2022-09-15T02:46:25.165Z,41.35
2022-09-15T02:47:58.812Z,41.17
2022-09-15T02:49:31.971Z,41.18
2022-09-15T02:51:04.524Z,41.06
2022-09-15T02:52:38.693Z,41.18
2022-09-15T02:54:13.515Z,41.11
2022-09-15T02:55:46.173Z,41.13
2022-09-15T02:57:17.784Z,41.38
2022-09-15T02:58:49.523Z,41.36
2022-09-15T03:00:21.074Z,41.12
2022-09-15T03:01:53.252Z,41.14
2022-09-15T03:03:25.436Z,41.23
2022-09-15T03:04:57.735Z,41.17
2022-09-15T03:06:34.552Z,41.25
2022-09-15T03:08:06.510Z,41.24
2022-09-15T03:09:38.319Z,41.16
2022-09-15T03:11:11.260Z,41.23
2022-09-15T03:12:44.260Z,41.09
2022-09-15T03:14:16.278Z,41.22
2022-09-15T03:15:47.949Z,41.34
2022-09-15T03:17:19.616Z,41.41
2022-09-15T03:18:52.553Z,41.43
2022-09-15T03:20:25.213Z,41.53
2022-09-15T03:21:57.017Z,41.52
2022-09-15T03:23:29.132Z,41.58
2022-09-15T03:25:01.682Z,41.67
2022-09-15T03:26:33.315Z,41.63
2022-09-15T03:28:04.988Z,41.68
2022-09-15T03:29:38.432Z,41.65
2022-09-15T03:31:11.059Z,41.76
2022-09-15T03:32:42.662Z,41.66
2022-09-15T03:34:15.010Z,41.48
2022-09-15T03:35:47.190Z,41.52
2022-09-15T03:37:20.574Z,41.47
2022-09-15T03:38:52.932Z,41.72
2022-09-15T03:40:26.255Z,41.70
2022-09-15T03:41:58.011Z,41.88
2022-09-15T03:43:33.769Z,42.05
2022-09-15T03:45:05.902Z,41.92
2022-09-15T03:46:37.879Z,41.96
2022-09-15T03:48:11.066Z,41.91
2022-09-15T03:49:43.180Z,41.98
2022-09-15T03:51:14.964Z,41.87
2022-09-15T03:52:46.623Z,42.02
2022-09-15T03:54:18.278Z,41.96
2022-09-15T03:55:50.975Z,41.94
2022-09-15T03:57:23.886Z,42.04
2022-09-15T03:58:56.050Z,42.08
2022-09-15T04:00:28.198Z,42.04
2022-09-15T04:02:00.721Z,42.01
2022-09-15T04:03:33.138Z,42.12
2022-09-15T04:05:05.791Z,42.11
2022-09-15T04:06:38.838Z,42.17
2022-09-15T04:08:12.287Z,42.02
2022-09-15T04:09:44.201Z,41.99
2022-09-15T04:11:16.156Z,42.24
2022-09-15T04:12:49.126Z,42.26
2022-09-15T04:14:21.264Z,42.28
2022-09-15T04:16:03.105Z,42.19
2022-09-15T04:17:34.898Z,42.21
2022-09-15T04:19:06.425Z,42.19
2022-09-15T04:20:40.587Z,42.26
2022-09-15T04:22:17.028Z,42.35
2022-09-15T04:23:49.489Z,42.23
2022-09-15T04:25:21.134Z,42.40
2022-09-15T04:26:54.742Z,42.34
2022-09-15T04:28:26.488Z,42.32
2022-09-15T04:29:59.423Z,42.26
2022-09-15T04:31:31.268Z,42.22
2022-09-15T04:33:02.888Z,42.28
2022-09-15T04:34:39.284Z,42.30
2022-09-15T04:36:16.761Z,42.18
2022-09-15T04:37:48.330Z,42.05
2022-09-15T04:39:19.921Z,42.22
2022-09-15T04:40:51.619Z,42.08
2022-09-15T04:42:24.244Z,42.06
2022-09-15T04:43:55.966Z,42.29
2022-09-15T04:45:28.974Z,42.40
2022-09-15T04:47:00.878Z,42.28
2022-09-15T04:48:32.871Z,42.26
2022-09-15T04:50:04.709Z,42.43
2022-09-15T04:51:36.371Z,42.38
2022-09-15T04:53:08.401Z,42.01
2022-09-15T04:54:40.123Z,42.09
2022-09-15T04:56:13.270Z,42.19
2022-09-15T04:57:45.033Z,42.32
2022-09-15T04:59:18.452Z,42.51
2022-09-15T05:00:50.113Z,42.40
2022-09-15T05:02:21.877Z,42.52
2022-09-15T05:03:53.798Z,42.68
2022-09-15T05:05:25.885Z,42.58
2022-09-15T05:06:57.551Z,42.56
2022-09-15T05:08:29.489Z,42.59
2022-09-15T05:10:01.114Z,42.69
2022-09-15T05:11:33.562Z,42.49
2022-09-15T05:13:05.329Z,42.50
2022-09-15T05:14:36.929Z,42.90
2022-09-15T05:16:15.406Z,42.76
2022-09-15T05:17:47.968Z,42.63
2022-09-15T05:19:19.950Z,42.86
2022-09-15T05:20:57.804Z,43.07
2022-09-15T05:22:29.434Z,43.04
2022-09-15T05:24:01.641Z,43.23
2022-09-15T05:25:33.473Z,43.06
2022-09-15T05:27:05.688Z,42.99
2022-09-15T05:28:37.753Z,42.92
2022-09-15T05:30:35.838Z,42.88
2022-09-15T05:32:01.642Z,42.79
2022-09-15T05:33:34.124Z,42.62
2022-09-15T05:35:06.887Z,42.60
2022-09-15T05:36:38.710Z,42.45
2022-09-15T05:38:10.254Z,42.54
2022-09-15T05:39:41.973Z,42.32
2022-09-15T05:41:14.246Z,42.48
2022-09-15T05:42:45.839Z,42.44
2022-09-15T05:44:17.559Z,42.45
2022-09-15T05:45:54.937Z,42.46
2022-09-15T05:47:27.019Z,42.27
2022-09-15T05:48:58.706Z,42.37
2022-09-15T05:50:30.953Z,42.34
2022-09-15T05:52:02.770Z,42.01
2022-09-15T05:53:35.117Z,42.32
2022-09-15T05:55:06.766Z,42.02
2022-09-15T05:56:38.560Z,42.03
2022-09-15T05:58:10.390Z,42.14
2022-09-15T05:59:43.999Z,41.83
2022-09-15T06:01:16.902Z,41.79
2022-09-15T06:02:48.476Z,41.95
2022-09-15T06:04:20.102Z,41.66
2022-09-15T06:05:58.788Z,41.30
2022-09-15T06:07:30.747Z,41.35
2022-09-15T06:09:02.800Z,41.03
2022-09-15T06:10:34.727Z,41.03
2022-09-15T06:12:06.747Z,41.27
2022-09-15T06:13:41.185Z,41.00
2022-09-15T06:15:12.830Z,40.87
2022-09-15T06:16:44.358Z,40.95
2022-09-15T06:18:16.491Z,40.70
2022-09-15T06:19:48.621Z,40.62
2022-09-15T06:21:24.034Z,40.73
2022-09-15T06:22:56.634Z,40.53
2022-09-15T06:24:28.221Z,40.52
2022-09-15T06:26:06.435Z,40.40
2022-09-15T06:27:39.154Z,40.28
2022-09-15T06:29:15.236Z,40.20
2022-09-15T06:30:49.565Z,40.15
2022-09-15T06:32:21.338Z,40.07
2022-09-15T06:33:54.857Z,40.10
2022-09-15T06:35:26.901Z,39.86
2022-09-15T06:36:59.335Z,39.67
2022-09-15T06:38:31.643Z,39.54
2022-09-15T06:40:04.588Z,39.30
2022-09-15T06:42:01.856Z,39.30
2022-09-15T06:43:30.708Z,38.93
2022-09-15T06:45:04.741Z,38.98
2022-09-15T06:46:36.360Z,38.83
2022-09-15T06:48:24.105Z,38.72
2022-09-15T06:49:56.835Z,38.66
2022-09-15T06:51:31.529Z,38.68
2022-09-15T06:53:03.055Z,38.42
2022-09-15T06:54:34.850Z,38.36
2022-09-15T06:56:07.426Z,38.41
2022-09-15T06:57:39.172Z,38.34
2022-09-15T06:59:14.326Z,38.31
2022-09-15T07:00:48.996Z,38.42
2022-09-15T07:02:27.813Z,38.11
2022-09-15T07:04:02.703Z,38.10
2022-09-15T07:05:35.071Z,37.97
2022-09-15T07:07:07.179Z,38.06
2022-09-15T07:08:39.272Z,37.91
2022-09-15T07:10:11.102Z,37.88
2022-09-15T07:11:43.281Z,37.58
2022-09-15T07:13:15.069Z,37.52
2022-09-15T07:14:47.999Z,37.34
2022-09-15T07:16:20.413Z,37.15
2022-09-15T07:17:51.980Z,37.06
2022-09-15T07:19:23.657Z,37.34
2022-09-15T07:21:03.298Z,37.27
2022-09-15T07:22:35.250Z,37.35
2022-09-15T07:24:07.981Z,37.18
2022-09-15T07:25:45.364Z,36.73
2022-09-15T07:27:17.008Z,36.73
2022-09-15T07:28:50.182Z,36.61
2022-09-15T07:30:21.764Z,36.54
2022-09-15T07:31:53.400Z,36.62
2022-09-15T07:33:25.663Z,36.42
2022-09-15T07:34:58.432Z,36.25
2022-09-15T07:36:31.128Z,36.41
2022-09-15T07:38:02.826Z,36.59
2022-09-15T07:39:34.337Z,36.14
2022-09-15T07:41:06.507Z,36.28
2022-09-15T07:42:38.725Z,36.23
2022-09-15T07:44:12.084Z,36.20
2022-09-15T07:45:43.689Z,36.09
2022-09-15T07:47:16.959Z,36.09
2022-09-15T07:48:51.271Z,36.20
2022-09-15T07:50:24.935Z,35.85
2022-09-15T07:51:56.586Z,35.69
2022-09-15T07:53:29.304Z,35.84
2022-09-15T07:55:00.942Z,35.80
2022-09-15T07:56:32.655Z,35.91
2022-09-15T07:58:04.682Z,35.55
2022-09-15T07:59:40.586Z,35.58
2022-09-15T08:01:14.844Z,35.59
2022-09-15T08:02:46.518Z,35.51
2022-09-15T08:04:18.058Z,35.39
2022-09-15T08:05:50.107Z,35.25
2022-09-15T08:07:21.767Z,35.29
2022-09-15T08:08:59.236Z,34.92
2022-09-15T08:10:32.161Z,34.96
2022-09-15T08:12:04.091Z,34.91
2022-09-15T08:13:35.672Z,34.64
2022-09-15T08:15:07.438Z,34.62
2022-09-15T08:16:39.108Z,34.78
2022-09-15T08:18:11.067Z,34.73
2022-09-15T08:19:42.748Z,34.17
2022-09-15T08:21:15.266Z,34.06
2022-09-15T08:22:48.153Z,34.41
2022-09-15T08:24:19.751Z,34.12
2022-09-15T08:25:51.805Z,34.45
2022-09-15T08:27:23.388Z,34.25
2022-09-15T08:28:54.942Z,34.00
2022-09-15T08:30:26.914Z,34.21
2022-09-15T08:31:58.859Z,33.89
2022-09-15T08:33:31.065Z,34.40
2022-09-15T08:35:02.661Z,33.94
2022-09-15T08:36:34.330Z,33.88
2022-09-15T08:38:05.837Z,34.10
2022-09-15T08:39:37.348Z,33.90
2022-09-15T08:41:14.293Z,34.16
2022-09-15T08:42:46.301Z,33.93
2022-09-15T08:44:29.527Z,33.97
2022-09-15T08:46:03.733Z,33.68
2022-09-15T08:47:39.714Z,33.65
2022-09-15T08:49:30.628Z,33.30
2022-09-15T08:51:11.826Z,32.98
2022-09-15T08:52:50.843Z,33.46
2022-09-15T08:54:24.442Z,33.18
2022-09-15T08:55:56.666Z,33.22
2022-09-15T08:57:28.299Z,32.82
2022-09-15T08:58:59.832Z,32.66
2022-09-15T09:00:31.921Z,32.81
2022-09-15T09:02:03.524Z,32.68
2022-09-15T09:03:54.492Z,32.82
2022-09-15T09:05:41.722Z,32.28
2022-09-15T09:07:39.685Z,32.45
2022-09-15T09:09:23.377Z,32.53
2022-09-15T09:10:56.534Z,32.18
2022-09-15T09:12:46.658Z,32.21
2022-09-15T09:14:21.332Z,32.05
2022-09-15T09:15:52.873Z,31.91
2022-09-15T09:17:57.065Z,31.80
2022-09-15T09:19:37.331Z,31.65
2022-09-15T09:21:21.153Z,31.76
2022-09-15T09:22:54.062Z,31.87
2022-09-15T09:24:28.657Z,31.73
2022-09-15T09:26:02.028Z,31.74
2022-09-15T09:27:36.998Z,31.46
2022-09-15T09:29:20.867Z,31.56
2022-09-15T09:30:52.885Z,31.54
2022-09-15T09:32:31.439Z,31.43
2022-09-15T09:34:11.893Z,31.26
2022-09-15T09:35:47.367Z,31.46
2022-09-15T09:37:19.726Z,31.26
2022-09-15T09:38:51.341Z,31.34
2022-09-15T09:40:23.187Z,31.08
2022-09-15T09:41:54.941Z,31.22
2022-09-15T09:43:28.326Z,31.22
2022-09-15T09:44:59.961Z,30.75
2022-09-15T09:46:31.746Z,30.79
2022-09-15T09:48:06.527Z,30.79
2022-09-15T09:49:38.923Z,30.87
2022-09-15T09:51:29.082Z,30.73
2022-09-15T09:53:00.751Z,30.64
2022-09-15T09:54:33.165Z,30.38
2022-09-15T09:56:36.938Z,30.46
2022-09-15T09:58:22.084Z,30.33
2022-09-15T09:59:57.308Z,29.94
2022-09-15T10:01:29.146Z,30.10
2022-09-15T10:03:09.807Z,30.07
2022-09-15T10:04:42.289Z,29.98
2022-09-15T10:06:20.659Z,30.07
2022-09-15T10:07:52.268Z,29.93
2022-09-15T10:09:28.830Z,29.89
2022-09-15T10:11:07.856Z,29.71
2022-09-15T10:12:40.958Z,29.83
2022-09-15T10:14:24.887Z,29.56
2022-09-15T10:16:00.788Z,29.51
2022-09-15T10:17:41.329Z,29.79
2022-09-15T10:19:13.896Z,29.23
2022-09-15T10:20:53.665Z,29.20
2022-09-15T10:22:28.507Z,29.47
2022-09-15T10:24:09.917Z,29.18
2022-09-15T10:25:59.206Z,29.26
2022-09-15T10:27:32.919Z,29.47
2022-09-15T10:29:10.655Z,28.79
2022-09-15T10:31:05.467Z,29.22
2022-09-15T10:32:37.120Z,29.21
2022-09-15T10:34:30.744Z,28.83
2022-09-15T10:36:03.860Z,28.81
2022-09-15T10:37:44.685Z,28.70
2022-09-15T10:39:22.302Z,28.77
2022-09-15T10:40:56.577Z,28.37
2022-09-15T10:42:31.754Z,28.70
2022-09-15T10:44:03.380Z,28.53
2022-09-15T10:45:43.952Z,28.63
2022-09-15T10:47:21.569Z,28.42
2022-09-15T10:48:59.358Z,27.94
2022-09-15T10:50:51.644Z,27.80
2022-09-15T10:52:41.217Z,27.91
2022-09-15T10:54:18.109Z,28.31
2022-09-15T10:56:07.862Z,28.34
2022-09-15T10:57:47.457Z,28.10
2022-09-15T10:59:22.318Z,27.44
2022-09-15T11:00:58.331Z,28.01
2022-09-15T11:02:44.126Z,27.67
2022-09-15T11:04:18.697Z,27.29
2022-09-15T11:06:06.224Z,27.48
2022-09-15T11:07:58.433Z,27.29
2022-09-15T11:09:50.399Z,27.56
2022-09-15T11:11:31.112Z,27.45
2022-09-15T11:13:03.667Z,26.74
2022-09-15T11:14:44.351Z,27.20
2022-09-15T11:16:35.327Z,26.81
2022-09-15T11:18:10.226Z,26.93
2022-09-15T11:20:00.143Z,26.68
2022-09-15T11:21:35.529Z,26.88
2022-09-15T11:23:12.132Z,27.18
2022-09-15T11:25:02.809Z,26.87
2022-09-15T11:26:44.795Z,27.00
2022-09-15T11:28:25.989Z,26.84
2022-09-15T11:30:17.980Z,26.70
2022-09-15T11:31:51.116Z,26.99
2022-09-15T11:33:28.560Z,26.83
2022-09-15T11:35:06.078Z,26.80
2022-09-15T11:36:55.934Z,26.93
2022-09-15T11:38:31.041Z,26.45
2022-09-15T11:40:05.139Z,26.69
2022-09-15T11:41:38.577Z,26.93
2022-09-15T11:43:46.361Z,26.52
2022-09-15T11:45:20.312Z,26.45
2022-09-15T11:47:10.522Z,26.50
2022-09-15T11:48:45.863Z,26.67
2022-09-15T11:50:19.492Z,26.70
2022-09-15T11:51:53.621Z,26.94
2022-09-15T11:53:46.373Z,26.69
2022-09-15T11:55:38.337Z,26.21
2022-09-15T11:57:17.083Z,26.23
2022-09-15T11:58:53.143Z,26.75
2022-09-15T12:00:25.166Z,26.32
2022-09-15T12:02:00.039Z,26.35
2022-09-15T12:03:51.218Z,26.59
2022-09-15T12:05:29.235Z,26.34
2022-09-15T12:07:13.660Z,26.74
2022-09-15T12:09:05.274Z,26.64
2022-09-15T12:10:43.840Z,26.52
2022-09-15T12:12:16.557Z,26.50
2022-09-15T12:13:48.331Z,26.43
2022-09-15T12:15:20.442Z,26.62
2022-09-15T12:16:52.002Z,26.22
2022-09-15T12:18:38.961Z,26.62
2022-09-15T12:20:18.112Z,26.14
2022-09-15T12:21:59.651Z,26.44
2022-09-15T12:23:36.244Z,25.82
2022-09-15T12:25:15.424Z,26.27
2022-09-15T12:26:47.605Z,25.86
2022-09-15T12:28:22.073Z,25.70
2022-09-15T12:29:54.375Z,26.22
2022-09-15T12:31:27.400Z,25.62
2022-09-15T12:32:59.345Z,26.15
2022-09-15T12:34:34.209Z,25.41
2022-09-15T12:36:24.304Z,25.42
2022-09-15T12:37:55.886Z,25.90
2022-09-15T12:39:32.853Z,25.40
2022-09-15T12:41:05.235Z,25.30
2022-09-15T12:42:37.324Z,25.60
2022-09-15T12:44:24.049Z,25.35
2022-09-15T12:45:59.155Z,25.36
2022-09-15T12:47:32.719Z,25.13
2022-09-15T12:49:04.564Z,25.21
2022-09-15T12:50:36.872Z,25.01
2022-09-15T12:52:08.869Z,25.18
2022-09-15T12:54:00.703Z,25.17
2022-09-15T12:55:35.813Z,25.27
2022-09-15T12:57:08.248Z,25.38
2022-09-15T12:58:46.733Z,24.79
2022-09-15T13:00:21.077Z,24.84
2022-09-15T13:01:54.031Z,24.88
2022-09-15T13:03:26.897Z,25.02
2022-09-15T13:04:58.557Z,24.76
2022-09-15T13:06:30.614Z,24.95
2022-09-15T13:08:02.149Z,24.96
2022-09-15T13:09:34.053Z,24.81
2022-09-15T13:11:08.487Z,24.51
2022-09-15T13:12:42.113Z,24.51
2022-09-15T13:14:25.973Z,24.56
2022-09-15T13:15:57.958Z,24.92
2022-09-15T13:17:29.986Z,24.58
2022-09-15T13:19:09.511Z,24.44
2022-09-15T13:20:41.649Z,24.77
2022-09-15T13:22:21.130Z,24.24
2022-09-15T13:23:53.003Z,24.24
2022-09-15T13:25:26.649Z,24.43
2022-09-15T13:26:58.674Z,24.25
2022-09-15T13:28:30.317Z,24.38
2022-09-15T13:30:14.163Z,24.33
2022-09-15T13:31:49.889Z,24.57
2022-09-15T13:35:26.525Z,24.08
2022-09-15T13:39:05.965Z,24.12
2022-09-15T13:40:54.665Z,24.40
2022-09-15T13:42:52.760Z,24.15
2022-09-15T13:44:30.148Z,24.69
2022-09-15T13:46:13.945Z,24.34
2022-09-15T13:47:58.116Z,24.01
2022-09-15T13:49:49.481Z,24.08
2022-09-15T13:51:25.604Z,24.60
2022-09-15T13:53:06.941Z,24.67
2022-09-15T13:54:38.540Z,24.68
2022-09-15T13:56:11.939Z,24.56
2022-09-15T13:59:37.119Z,24.26
2022-09-15T14:01:08.745Z,24.82
2022-09-15T14:02:42.954Z,24.34
2022-09-15T14:04:16.658Z,24.75
2022-09-15T14:05:48.345Z,24.43
2022-09-15T14:07:22.088Z,24.56
2022-09-15T14:08:54.959Z,24.34
2022-09-15T14:10:27.518Z,24.83
2022-09-15T14:11:59.978Z,24.96
2022-09-15T14:13:32.095Z,24.91
2022-09-15T14:15:06.556Z,24.80
2022-09-15T14:16:39.165Z,25.04
2022-09-15T14:18:18.874Z,25.00
2022-09-15T14:19:51.903Z,25.09
2022-09-15T14:21:24.438Z,24.54
2022-09-15T14:22:57.195Z,24.79
2022-09-15T14:24:30.207Z,25.19
2022-09-15T14:26:01.943Z,24.75
2022-09-15T14:27:33.986Z,25.03
2022-09-15T14:29:06.069Z,25.33
2022-09-15T14:30:38.499Z,25.06
2022-09-15T14:32:12.615Z,25.25
2022-09-15T14:33:44.259Z,25.21
2022-09-15T14:35:19.748Z,25.06
2022-09-15T14:37:15.615Z,25.31
2022-09-15T14:38:47.294Z,25.54
2022-09-15T14:40:23.584Z,25.36
2022-09-15T14:41:55.309Z,25.41
2022-09-15T14:43:35.816Z,25.01
2022-09-15T14:47:02.187Z,25.36
2022-09-15T14:48:34.378Z,24.96
2022-09-15T14:50:12.254Z,25.38
2022-09-15T14:51:44.320Z,25.28
2022-09-15T14:53:17.019Z,25.36
2022-09-15T14:54:49.168Z,25.35
2022-09-15T14:56:24.926Z,25.32
2022-09-15T14:58:14.357Z,25.32
2022-09-15T14:59:47.488Z,25.00
2022-09-15T15:01:20.978Z,25.20
2022-09-15T15:02:55.962Z,24.82
2022-09-15T15:04:41.078Z,25.28
2022-09-15T15:06:28.960Z,25.29
2022-09-15T15:08:02.159Z,25.14
2022-09-15T15:09:52.954Z,24.89
2022-09-15T15:11:25.154Z,24.92
2022-09-15T15:12:57.715Z,25.38
2022-09-15T15:14:29.483Z,25.28
2022-09-15T15:16:02.003Z,24.80
2022-09-15T15:17:37.942Z,25.16
2022-09-15T15:19:32.939Z,25.12
2022-09-15T15:21:05.248Z,25.17
2022-09-15T15:22:37.202Z,25.24
2022-09-15T15:24:15.839Z,25.28
2022-09-15T15:25:48.447Z,25.23
2022-09-15T15:27:26.962Z,25.36
2022-09-15T15:28:59.359Z,25.24
2022-09-15T15:30:31.465Z,25.32
2022-09-15T15:32:09.136Z,25.29
2022-09-15T15:34:06.188Z,25.41
2022-09-15T15:35:37.955Z,25.21
2022-09-15T15:37:18.935Z,25.06
2022-09-15T15:38:57.488Z,25.54
2022-09-15T15:40:29.334Z,25.53
2022-09-15T15:42:04.807Z,25.48
2022-09-15T15:43:36.649Z,25.66
2022-09-15T15:45:20.295Z,25.31
2022-09-15T15:46:54.647Z,25.61
2022-09-15T15:48:26.627Z,25.61
2022-09-15T15:50:19.087Z,25.64
2022-09-15T15:51:50.723Z,25.41
2022-09-15T15:53:22.815Z,25.70
2022-09-15T15:54:54.475Z,25.64
2022-09-15T15:56:26.372Z,25.46
2022-09-15T15:57:58.448Z,25.76
2022-09-15T15:59:30.238Z,25.82
2022-09-15T16:01:01.852Z,25.74
2022-09-15T16:02:33.831Z,25.84
2022-09-15T16:04:08.279Z,25.84
2022-09-15T16:05:40.358Z,25.77
2022-09-15T16:07:12.721Z,25.89
2022-09-15T16:08:44.568Z,26.04
2022-09-15T16:10:17.227Z,26.02
2022-09-15T16:11:49.029Z,26.10
2022-09-15T16:13:20.895Z,25.92
2022-09-15T16:14:52.610Z,26.08
2022-09-15T16:16:25.431Z,26.08
2022-09-15T16:17:57.169Z,26.10
2022-09-15T16:19:29.142Z,25.99
2022-09-15T16:21:02.404Z,26.31
2022-09-15T16:22:34.313Z,26.16
2022-09-15T16:24:06.281Z,26.21
2022-09-15T16:25:56.273Z,26.70
2022-09-15T16:27:28.948Z,26.43
2022-09-15T16:29:01.182Z,26.47
2022-09-15T16:30:33.111Z,26.59
2022-09-15T16:32:04.837Z,26.29
2022-09-15T16:33:38.266Z,26.44
2022-09-15T16:35:25.046Z,26.69
2022-09-15T16:36:57.364Z,26.56
2022-09-15T16:38:29.096Z,26.46
2022-09-15T16:40:01.215Z,26.45
2022-09-15T16:41:38.471Z,26.50
2022-09-15T16:43:12.639Z,26.74
2022-09-15T16:44:45.377Z,26.74
2022-09-15T16:46:17.538Z,26.85
2022-09-15T16:47:49.285Z,26.97
2022-09-15T16:49:20.848Z,27.00
2022-09-15T16:52:44.385Z,26.83
2022-09-15T16:54:16.710Z,26.59
2022-09-15T16:55:49.380Z,27.13
2022-09-15T16:57:20.904Z,26.54
2022-09-15T16:58:58.851Z,26.72
2022-09-15T17:00:32.698Z,26.96
2022-09-15T17:02:05.879Z,27.36
2022-09-15T17:03:37.689Z,26.86
2022-09-15T17:05:14.170Z,27.41
2022-09-15T17:06:46.140Z,26.91
2022-09-15T17:08:18.652Z,27.12
2022-09-15T17:09:51.276Z,27.53
2022-09-15T17:11:25.360Z,27.56
2022-09-15T17:12:57.162Z,27.20
2022-09-15T17:14:28.768Z,27.67
2022-09-15T17:16:00.586Z,27.61
2022-09-15T17:17:32.484Z,27.37
2022-09-15T17:19:04.742Z,27.58
2022-09-15T17:20:39.358Z,27.69
2022-09-15T17:22:11.677Z,27.63
2022-09-15T17:23:44.543Z,27.60
2022-09-15T17:25:18.662Z,27.67
2022-09-15T17:26:50.543Z,27.38
2022-09-15T17:28:22.887Z,27.59
2022-09-15T17:29:55.028Z,27.36
2022-09-15T17:31:28.044Z,27.36
2022-09-15T17:33:03.578Z,27.41
2022-09-15T17:34:35.160Z,27.89
2022-09-15T17:36:07.608Z,27.58
2022-09-15T17:37:39.259Z,28.08
2022-09-15T17:39:11.199Z,28.08
2022-09-15T17:40:43.044Z,27.75
2022-09-15T17:42:15.650Z,28.03
2022-09-15T17:43:47.304Z,27.87
2022-09-15T17:45:20.464Z,27.92
2022-09-15T17:46:52.454Z,27.93
2022-09-15T17:48:24.517Z,28.17
2022-09-15T17:49:56.118Z,28.14
2022-09-15T17:51:28.342Z,28.14
2022-09-15T17:53:00.031Z,28.22
2022-09-15T17:54:31.840Z,28.28
2022-09-15T17:56:03.958Z,28.64
2022-09-15T17:57:35.662Z,28.49
2022-09-15T17:59:07.274Z,28.45
2022-09-15T18:00:39.581Z,28.52
2022-09-15T18:02:15.493Z,29.01
2022-09-15T18:03:47.131Z,28.79
2022-09-15T18:05:18.632Z,28.97
2022-09-15T18:06:50.430Z,29.11
2022-09-15T18:08:21.918Z,29.16
2022-09-15T18:09:53.807Z,29.09
2022-09-15T18:11:27.271Z,29.03
2022-09-15T18:12:58.974Z,29.06
2022-09-15T18:14:30.784Z,29.00
2022-09-15T18:16:06.330Z,29.08
2022-09-15T18:17:38.657Z,29.26
2022-09-15T18:19:11.138Z,29.30
2022-09-15T18:20:43.077Z,29.16
2022-09-15T18:22:14.912Z,29.59
2022-09-15T18:23:46.585Z,29.55
2022-09-15T18:25:24.689Z,29.51
2022-09-15T18:26:56.523Z,29.52
2022-09-15T18:28:28.079Z,29.58
2022-09-15T18:29:59.946Z,29.79
2022-09-15T18:31:31.620Z,29.82
2022-09-15T18:33:03.361Z,29.94
2022-09-15T18:34:35.194Z,29.81
2022-09-15T18:36:07.162Z,29.85
2022-09-15T18:37:38.801Z,30.08
2022-09-15T18:39:12.052Z,30.02
2022-09-15T18:40:47.002Z,30.04
2022-09-15T18:42:19.005Z,30.03
2022-09-15T18:43:50.714Z,29.95
2022-09-15T18:45:22.503Z,30.25
2022-09-15T18:46:54.076Z,30.12
2022-09-15T18:48:26.321Z,30.17
2022-09-15T18:49:58.792Z,30.13
2022-09-15T18:51:50.562Z,30.28
2022-09-15T18:53:22.060Z,30.36
2022-09-15T18:54:54.093Z,30.34
2022-09-15T18:56:26.413Z,30.03
2022-09-15T18:58:00.949Z,30.43
2022-09-15T18:59:32.907Z,30.35
2022-09-15T19:01:04.984Z,30.50
2022-09-15T19:02:36.870Z,30.51
2022-09-15T19:04:08.483Z,30.59
2022-09-15T19:05:40.103Z,30.43
2022-09-15T19:07:11.795Z,30.63
2022-09-15T19:08:43.770Z,30.61
2022-09-15T19:10:17.632Z,30.50
2022-09-15T19:11:49.351Z,30.62
2022-09-15T19:13:21.005Z,30.65
2022-09-15T19:14:52.778Z,30.74
2022-09-15T19:16:34.624Z,30.68
2022-09-15T19:18:16.008Z,30.76
2022-09-15T19:19:47.768Z,30.86
2022-09-15T19:21:22.834Z,31.11
2022-09-15T19:22:57.466Z,31.07
2022-09-15T19:24:33.698Z,31.41
2022-09-15T19:26:06.302Z,31.06
2022-09-15T19:27:38.811Z,31.35
2022-09-15T19:29:11.364Z,31.37
2022-09-15T19:30:42.923Z,31.37
2022-09-15T19:32:14.929Z,31.55
2022-09-15T19:33:46.590Z,31.57
2022-09-15T19:35:19.225Z,31.66
2022-09-15T19:36:50.831Z,32.04
2022-09-15T19:38:22.430Z,31.60
2022-09-15T19:39:54.890Z,31.68
2022-09-15T19:41:26.516Z,31.78
2022-09-15T19:42:58.538Z,31.99
2022-09-15T19:44:30.130Z,31.80
2022-09-15T19:46:02.131Z,31.47
2022-09-15T19:47:34.059Z,32.01
2022-09-15T19:49:05.912Z,32.06
2022-09-15T19:50:38.274Z,31.97
2022-09-15T19:52:10.713Z,31.81
2022-09-15T19:53:42.320Z,31.96
2022-09-15T19:55:14.082Z,32.22
2022-09-15T19:56:45.819Z,32.11
2022-09-15T19:58:17.748Z,31.99
2022-09-15T19:59:49.489Z,31.99
2022-09-15T20:01:21.768Z,32.01
2022-09-15T20:02:53.357Z,32.07
2022-09-15T20:04:24.964Z,32.08
2022-09-15T20:05:56.711Z,32.29
2022-09-15T20:07:28.222Z,32.23
2022-09-15T20:08:59.876Z,32.41
2022-09-15T20:10:31.528Z,32.41
2022-09-15T20:12:03.745Z,32.68
2022-09-15T20:13:39.585Z,32.45
2022-09-15T20:15:11.624Z,32.52
2022-09-15T20:16:43.680Z,32.38
2022-09-15T20:18:16.596Z,32.54
2022-09-15T20:19:48.860Z,32.37
2022-09-15T20:21:39.102Z,32.55
2022-09-15T20:23:15.297Z,32.71
2022-09-15T20:24:46.989Z,32.46
2022-09-15T20:26:18.638Z,32.68
2022-09-15T20:27:52.685Z,32.88
2022-09-15T20:29:24.423Z,32.90
2022-09-15T20:31:01.941Z,32.86
2022-09-15T20:32:34.626Z,32.94